Latest Coastal Weather Observations for Wynyard

IDV60701

Issued at 4:51 am EST Sunday 30 August 2015 (issued every 10 minutes, with the page automatically refreshed every 10 minutes)

About coastal observations | Map of coastal stations | Coastal observations for VIC | Marine services | Other Formats
Station Details ID: 091107 Name: WYNYARD AIRPORT Lat: -41.00 Lon: 145.73 Height: 12.0 m
Data from the previous 72 hours. | See also: Recent months at Wynyard
Date/Time
EST
Temp

°C
Wind Pressure Rain
since 9am
mm
Weather Cloud Vis
km
Sea
Height
m
Swell
Dir
 
Speed
knots
Gust
knots
hPa Trend Height
m
Period
s
Dir
30/04:30am 4.7 WSW 3 4 1022.8 - 0.0 - - 10 - - - -
30/04:00am 4.3 WSW 6 8 1022.5 - 0.0 - - 10 - - - -
30/03:30am 4.3 WSW 6 8 1022.7 - 0.0 - - 10 - - - -
30/03:00am 5.7 SSW 7 11 1022.8 - 0.0 - - 10 - - - -
30/02:30am 5.5 SW 6 9 1023.3 - 0.0 - - 10 - - - -
30/02:00am 5.3 SW 6 10 1023.8 - 0.0 - - 10 - - - -
30/01:30am 6.3 SW 5 8 1024.0 - 0.0 - - 10 - - - -
30/01:00am 6.3 SSW 7 13 1024.1 - 0.0 - - 10 - - - -
30/12:30am 6.7 SSW 7 13 1024.0 - 0.0 - - 10 - - - -
30/12:00am 6.7 SSW 8 15 1024.0 - 0.0 - - 10 - - - -
 
Date/Time
EST
Temp

°C
Wind Pressure Rain
since 9am
mm
Weather Cloud Vis
km
Sea
Height
m
Swell
Dir
 
Speed
knots
Gust
knots
hPa Trend Height
m
Period
s
Dir
29/11:30pm 7.3 SSW 8 14 1024.1 - 0.0 - - 10 - - - -
29/11:00pm 7.3 SSW 8 13 1024.4 - 0.0 - - 10 - - - -
29/10:30pm 7.4 SSW 6 10 1024.6 - 0.0 - - 10 - - - -
29/10:00pm 7.6 SW 8 11 1024.6 - 0.0 - - 10 - - - -
29/09:30pm 8.2 SSW 9 16 1024.2 - 0.0 - - 10 - - - -
29/09:00pm 8.3 S 11 18 1023.8 - 0.0 - - 10 - - - -
29/08:30pm 8.5 SSW 9 13 1023.6 - 0.0 - - 10 - - - -
29/08:00pm 8.6 SSW 9 13 1023.4 - 0.0 - - 10 - - - -
29/07:30pm 9.2 SSW 11 19 1023.0 - 0.0 - - 10 - - - -
29/07:00pm 9.6 SSW 11 16 1022.7 - 0.0 - - 10 - - - -
29/06:30pm 9.9 SSW 10 14 1022.5 - 0.0 - - 10 - - - -
29/06:00pm 10.6 SSW 13 18 1022.0 - 0.0 - - 10 - - - -
29/05:30pm 11.7 SSW 11 18 1021.8 - 0.0 - - 10 - - - -
29/05:00pm 12.8 SSW 9 15 1021.4 - 0.0 - - 10 - - - -
29/04:30pm 12.9 SSW 12 17 1021.2 - 0.0 - - 10 - - - -
29/04:00pm 13.8 SSW 12 19 1021.1 - 0.0 - - 10 - - - -
29/03:30pm 13.9 SSW 11 19 1020.8 - 0.0 - - 10 - - - -
29/03:00pm 13.8 SSW 13 22 1020.7 - 0.0 - Mostly clear 10 - - - -
29/02:30pm 14.1 SSW 11 15 1020.6 - 0.0 - - 10 - - - -
29/02:00pm 14.2 SSW 11 17 1020.7 - 0.0 - - 10 - - - -
29/01:30pm 14.1 SSW 14 21 1020.6 - 0.0 - Partly cloudy 10 - - - -
29/01:00pm 13.3 SSW 16 24 1021.0 - 0.0 - Partly cloudy 10 - - - -
29/12:30pm 14.0 SW 16 24 1021.3 - 0.0 - - 10 - - - -
29/12:00pm 13.3 SSW 11 19 1021.6 - 0.0 - Mostly cloudy 10 - - - -
29/11:30am 13.4 SSW 13 23 1021.7 - 0.0 - - 10 - - - -
29/11:00am 13.0 SSW 13 20 1021.8 - 0.0 - Partly cloudy 10 - - - -
29/10:48am 12.6 SSW 16 27 1021.8 - 0.0 - Partly cloudy 10 - - - -
29/10:30am 12.0 SSW 17 23 1021.5 - 0.0 - Partly cloudy 10 - - - -
29/10:00am 11.8 SSW 13 21 1021.2 - 0.0 - - 10 - - - -
29/09:46am 11.5 SSW 15 25 1021.0 - 0.0 - - 10 - - - -
29/09:30am 11.4 SSW 13 22 1020.7 - 0.0 - - 10 - - - -
29/09:00am 10.9 SSW 13 22 1020.6 - 0.0 - Mostly cloudy 10 - - - -
29/08:30am 10.4 SSW 13 19 1020.8 - 0.0 - - 10 - - - -
29/08:00am 10.1 SSW 11 17 1020.8 - 0.0 - - 10 - - - -
29/07:30am 9.5 SSW 8 14 1020.2 - 0.0 - - 10 - - - -
29/07:00am 9.3 SSW 9 13 1019.9 - 0.0 - - 10 - - - -
29/06:30am 8.9 SSW 11 16 1019.8 - 0.0 - - 10 - - - -
29/06:00am 8.5 SW 11 17 1019.5 - 0.0 - Partly cloudy 10 - - - -
29/05:30am 7.8 SW 8 15 1019.4 - 0.0 - Partly cloudy 10 - - - -
29/05:00am 7.8 SW 15 25 1019.1 - 0.0 - Partly cloudy 10 - - - -
29/04:57am 7.9 SW 15 25 1019.1 - 0.0 - Partly cloudy 10 - - - -
29/04:30am 6.9 WSW 14 23 1019.0 - 0.0 - Partly cloudy 10 - - - -
29/04:00am 6.0 WSW 14 17 1019.7 - 0.0 - Partly cloudy 10 - - - -
29/03:30am 5.6 WSW 14 18 1020.2 - 0.0 - Partly cloudy 10 - - - -
29/03:00am 4.7 WNW 10 15 1020.8 - 0.0 - Mostly clear 10 - - - -
29/02:30am 4.0 W 11 16 1021.5 - 0.0 - - 10 - - - -
29/02:00am 4.3 WSW 13 16 1021.9 - 0.0 - - 10 - - - -
29/01:30am 4.4 SW 14 19 1022.6 - 0.0 - - 10 - - - -
29/01:00am 4.0 WSW 13 18 1023.0 - 0.0 - - 10 - - - -
29/12:30am 3.9 WSW 14 21 1023.4 - 0.0 - - 10 - - - -
29/12:00am 3.9 WSW 17 22 1023.7 - 0.0 - - 10 - - - -
 
Date/Time
EST
Temp

°C
Wind Pressure Rain
since 9am
mm
Weather Cloud Vis
km
Sea
Height
m
Swell
Dir
 
Speed
knots
Gust
knots
hPa Trend Height
m
Period
s
Dir
28/11:30pm 3.0 WSW 12 14 1024.6 - 0.0 - - 10 - - - -
28/11:00pm 2.9 WSW 8 10 1025.5 - 0.0 - - 10 - - - -
28/10:30pm 2.8 W 8 9 1025.7 - 0.0 - - 10 - - - -
28/10:00pm 2.3 W 8 9 1026.2 - 0.0 - - 10 - - - -
28/09:30pm 2.6 WSW 8 10 1026.4 - 0.0 - - 10 - - - -
28/09:00pm 4.3 SW 8 11 1026.7 - 0.0 - - 10 - - - -
28/08:30pm 4.7 SW 9 12 1026.7 - 0.0 - - 10 - - - -
28/08:00pm 6.5 SSW 14 19 1026.1 - 0.0 - - 10 - - - -
28/07:30pm 6.9 SSW 14 20 1025.5 - 0.0 - - 10 - - - -
28/07:00pm 7.1 SSW 15 22 1025.2 - 0.0 - - 10 - - - -
28/06:30pm 7.6 SSW 15 19 1024.8 - 0.0 - - 10 - - - -
28/06:00pm 8.4 SSW 11 17 1024.4 - 0.0 - - 10 - - - -
28/05:30pm 9.6 SSW 8 14 1024.2 - 0.0 - - 10 - - - -
28/05:00pm 10.5 SSW 11 15 1023.9 - 0.0 - - 10 - - - -
28/04:30pm 11.2 S 7 13 1023.8 - 0.0 - - 10 - - - -
28/04:00pm 11.1 NNE 6 9 1023.8 - 0.0 - Partly cloudy 10 - - - -
28/03:30pm 10.9 SE 7 10 1023.7 - 0.0 - Cloudy 10 - - - -
28/03:00pm 12.0 S 5 10 1023.7 - 0.0 - Partly cloudy 10 - - - -
28/02:30pm 12.0 SSW 8 13 1023.7 - 0.0 - Partly cloudy 10 - - - -
28/02:00pm 11.1 SSE 9 17 1023.9 - 0.0 - Partly cloudy 10 - - - -
28/01:30pm 12.5 S 9 13 1024.0 - 0.0 - Partly cloudy 10 - - - -
28/01:00pm 12.1 S 9 15 1024.3 - 0.0 - Partly cloudy 10 - - - -
28/12:30pm 11.5 NNW 5 7 1024.5 - 0.0 - Partly cloudy 10 - - - -
28/12:00pm 9.8 NNE 7 9 1025.0 - 0.0 - Cloudy 10 - - - -
28/11:30am 10.1 NE 7 10 1025.3 - 0.0 - Partly cloudy 10 - - - -
28/11:00am 10.7 S 6 9 1025.3 - 0.0 - Partly cloudy 10 - - - -
28/10:30am 10.6 SSW 5 7 1025.3 - 0.0 - Cloudy 10 - - - -
28/10:00am 11.4 ESE 5 14 1025.0 - 0.0 - Partly cloudy 10 - - - -
28/09:30am 10.1 ENE 5 7 1025.0 - 0.0 - - 10 - - - -
28/09:00am 10.1 E 2 3 1024.9 - 0.6 - Partly cloudy 10 - - - -
28/08:30am 8.7 S 7 13 1024.5 - 0.6 - Partly cloudy 10 - - - -
28/08:00am 7.7 S 9 13 1024.3 - 0.6 - Cloudy 10 - - - -
28/07:30am 7.2 SSW 11 14 1023.9 - 0.6 - Partly cloudy 10 - - - -
28/07:00am 6.6 SSW 9 11 1023.5 - 0.6 - Partly cloudy 10 - - - -
28/06:30am 7.2 SSW 7 10 1023.3 - 0.6 - - 10 - - - -
28/06:00am 7.0 SSW 8 10 1023.1 - 0.6 - - 10 - - - -
28/05:30am 6.3 SSW 6 9 1022.9 - 0.6 - - 10 - - - -
28/05:00am 7.0 WSW 3 7 1022.5 - 0.6 - - 10 - - - -
28/04:30am 7.2 SW 5 9 1022.3 - 0.6 - - 10 - - - -
28/04:00am 6.9 W 5 7 1022.1 - 0.6 - - 10 - - - -
28/03:30am 6.1 SW 5 8 1022.0 - 0.6 - - 10 - - - -
28/03:00am 7.2 SSW 1 6 1022.0 - 0.6 - - 10 - - - -
28/02:30am 8.1 SW 7 10 1022.1 - 0.6 - Partly cloudy 10 - - - -
28/02:00am 8.9 SSW 6 11 1022.0 - 0.6 - Cloudy 10 - - - -
28/01:30am 9.0 SSW 10 16 1022.2 - 0.6 - Partly cloudy 10 - - - -
28/01:00am 9.1 SSW 8 13 1022.2 - 0.6 - Cloudy 10 - - - -
28/12:30am 8.9 SSW 8 12 1022.1 - 0.6 - - 10 - - - -
28/12:00am 9.0 S 7 12 1022.1 - 0.6 - - 10 - - - -
 
Date/Time
EST
Temp

°C
Wind Pressure Rain
since 9am
mm
Weather Cloud Vis
km
Sea
Height
m
Swell
Dir
 
Speed
knots
Gust
knots
hPa Trend Height
m
Period
s
Dir
27/11:30pm 9.1 SSW 6 10 1022.1 - 0.6 - Partly cloudy 10 - - - -
27/11:00pm 9.3 SSW 7 12 1022.0 - 0.6 - Partly cloudy 10 - - - -
27/10:30pm 9.4 S 7 11 1021.9 - 0.6 - Partly cloudy 10 - - - -
27/10:00pm 9.3 SSW 6 10 1021.9 - 0.6 - Partly cloudy 10 - - - -
27/09:30pm 9.6 SSW 8 12 1021.9 - 0.6 - Partly cloudy 10 - - - -
27/09:00pm 9.8 SSW 10 16 1021.6 - 0.6 - - 10 - - - -
27/08:30pm 10.1 SSW 11 17 1021.4 - 0.6 - - 10 - - - -
27/08:00pm 10.3 SSW 10 15 1021.2 - 0.6 - - 10 - - - -
27/07:30pm 10.6 SSW 10 14 1020.9 - 0.6 - - 10 - - - -
27/07:00pm 10.8 SSW 9 13 1020.8 - 0.6 - Partly cloudy 10 - - - -
27/06:30pm 11.2 SW 8 12 1020.8 - 0.6 - Partly cloudy 10 - - - -
27/06:00pm 11.9 SW 8 11 1020.5 - 0.6 - Mostly cloudy 10 - - - -
27/05:30pm 12.9 SSW 7 10 1020.2 - 0.6 - Cloudy 10 - - - -
27/05:00pm 13.6 SSW 7 12 1020.0 - 0.6 - Partly cloudy 10 - - - -
27/04:30pm 13.5 W 5 7 1019.8 - 0.6 - Partly cloudy 10 - - - -
27/04:00pm 13.4 NW 7 9 1019.8 - 0.6 - Partly cloudy 10 - - - -
27/03:30pm 14.7 NNE 1 3 1019.7 - 0.6 - Partly cloudy 10 - - - -
27/03:00pm 13.3 NNE 4 5 1019.8 - 0.6 Recent precip. Mostly cloudy 10 - - - -
27/02:30pm 12.8 NNE 5 7 1019.9 - 0.4 - Partly cloudy 10 - - - -
27/02:06pm 12.0 NNE 5 7 1020.0 - 0.4 - Partly cloudy 10 - - - -
27/02:00pm 12.1 NNE 5 7 1020.0 - 0.4 - Partly cloudy 8 - - - -
27/01:53pm 12.6 ENE 5 8 1020.2 - 0.4 - Partly cloudy 5 - - - -
27/01:30pm 14.5 NNE 6 8 1020.4 - 0.0 - Partly cloudy 10 - - - -
27/01:00pm 13.7 NE 8 10 1021.0 - 0.0 - Partly cloudy 10 - - - -
27/12:30pm 14.0 NNE 5 7 1021.3 - 0.0 - Partly cloudy 10 - - - -
27/12:00pm 12.8 NE 6 8 1021.9 - 0.0 - Cloudy 10 - - - -
27/11:30am 13.6 E 3 6 1022.3 - 0.0 - Partly cloudy 10 - - - -
27/11:00am 13.1 SE 5 8 1022.7 - 0.0 - Partly cloudy 10 - - - -
27/10:30am 12.6 ESE 5 9 1022.9 - 0.0 - Partly cloudy 10 - - - -
27/10:00am 12.2 SE 5 7 1023.0 - 0.0 - Partly cloudy 10 - - - -
27/09:30am 11.3 SSE 4 5 1023.3 - 0.0 - Partly cloudy 10 - - - -
27/09:00am 10.7 S 2 5 1023.5 - 2.0 - Cloudy 10 - - - -
27/08:30am 10.1 SSE 3 6 1023.4 - 2.0 - Partly cloudy 10 - - - -
27/08:00am 9.8 SSE 6 8 1023.2 - 2.0 - Partly cloudy 10 - - - -
27/07:30am 9.1 SSE 5 7 1022.9 - 2.0 - Partly cloudy 10 - - - -
27/07:00am 8.8 SSE 4 6 1022.9 - 2.0 - Cloudy 10 - - - -
27/06:30am 8.8 CALM 0 2 1022.7 - 2.0 - Partly cloudy 10 - - - -
27/06:12am 8.8 SW 3 4 1022.7 - 2.0 - Partly cloudy 10 - - - -
27/06:00am 8.7 SW 3 5 1022.7 - 2.0 - Cloudy 10 - - - -
27/05:54am 8.7 SSW 2 4 1022.7 - 2.0 - Partly cloudy 10 - - - -
27/05:30am 8.8 SSE 4 6 1022.6 - 2.0 - Partly cloudy 10 - - - -
27/05:00am 8.9 S 4 5 1022.7 - 2.0 - Partly cloudy 10 - - - -

Other Formats:

Comma delimited format used in spreadsheet applications
http://www.bom.gov.au/fwo/IDV60701/IDV60701.95957.axf

JavaScript Object Notation format (JSON) in row-major order
http://www.bom.gov.au/fwo/IDV60701/IDV60701.95957.json